Time;durP1;ratioP1;P1;durP2;ratioP2;P2;SDS_P1;SDS_P2;PMS_P1;PMS_P2;Temp;Humidity;BMP_temperature;BMP_pressure;BME280_temperature;BME280_humidity;BME280_pressure;Samples;Min_cycle;Max_cycle;Signal;HPM_P1;HPM_P2
2022/11/10 00:02:19;;;;;;;9.43;1.77;;;;;;;13.71;58.98;101620.72;4964630;28;124394;-68
2022/11/10 00:05:05;;;;;;;9.55;2.38;;;;;;;13.70;59.18;101624.34;4963182;28;120220;-68
2022/11/10 00:07:51;;;;;;;8.88;2.10;;;;;;;13.69;59.21;101623.44;4963229;28;118944;-69
2022/11/10 00:10:56;;;;;;;8.60;2.10;;;;;;;13.70;59.24;101625.19;4966669;28;124505;-68
2022/11/10 00:17:01;;;;;;;14.70;2.47;;;;;;;13.68;59.33;101632.38;4957426;28;119464;-68
2022/11/10 00:19:46;;;;;;;9.68;1.80;;;;;;;13.66;59.35;101639.56;4960901;28;119510;-68
2022/11/10 00:22:33;;;;;;;10.32;2.25;;;;;;;13.66;59.31;101642.25;4954702;28;124586;-68
2022/11/10 00:25:19;;;;;;;7.63;1.77;;;;;;;13.66;59.27;101642.25;4958282;28;124549;-68
2022/11/10 00:28:05;;;;;;;13.50;2.40;;;;;;;13.66;59.36;101644.91;4955121;28;119941;-68
2022/11/10 00:30:51;;;;;;;10.80;2.58;;;;;;;13.66;59.44;101644.91;4963849;28;120310;-68
2022/11/10 00:33:38;;;;;;;8.82;2.00;;;;;;;13.66;59.46;101647.56;4966205;28;124986;-68
2022/11/10 00:36:24;;;;;;;7.38;2.33;;;;;;;13.65;59.44;101650.28;4955367;28;124305;-68
2022/11/10 00:39:11;;;;;;;9.32;2.63;;;;;;;13.65;59.50;101643.16;4961690;28;120927;-68
2022/11/10 00:41:56;;;;;;;9.40;2.22;;;;;;;13.65;59.40;101659.13;4966186;28;120428;-68
2022/11/10 00:44:41;;;;;;;10.25;2.15;;;;;;;13.64;59.37;101652.09;4957810;28;124704;-68
2022/11/10 00:47:27;;;;;;;10.23;2.40;;;;;;;13.62;59.43;101653.97;4961691;28;124841;-68
2022/11/10 00:50:13;;;;;;;9.38;2.70;;;;;;;13.60;59.38;101658.50;4961529;28;120621;-68
2022/11/10 00:52:58;;;;;;;;;;;;;;;13.56;59.07;101667.53;4955593;28;119606;-68
2022/11/10 00:55:43;;;;;;;8.07;2.13;;;;;;;13.55;59.11;101665.81;4956496;28;125510;-69
2022/11/10 00:58:29;;;;;;;12.82;2.45;;;;;;;13.51;59.20;101667.75;4956283;28;124814;-68
2022/11/10 01:01:16;;;;;;;10.60;2.22;;;;;;;13.48;59.30;101667.00;4966826;28;120114;-68
2022/11/10 01:04:02;;;;;;;9.50;2.35;;;;;;;13.43;59.29;101670.75;4960127;28;119463;-68
2022/11/10 01:06:48;;;;;;;11.15;2.63;;;;;;;13.40;59.44;101665.53;4957496;28;125389;-68
2022/11/10 01:09:33;;;;;;;11.73;2.60;;;;;;;13.38;59.39;101667.41;4962372;28;124528;-68
2022/11/10 01:12:19;;;;;;;9.30;2.47;;;;;;;13.35;59.61;101672.84;4962149;28;120094;-68
2022/11/10 01:15:05;;;;;;;11.32;2.90;;;;;;;13.34;59.52;101670.28;4959124;28;119776;-68
2022/11/10 01:17:52;;;;;;;9.63;2.13;;;;;;;13.31;59.60;101676.59;4963137;28;124694;-68
2022/11/10 01:20:38;;;;;;;12.27;2.58;;;;;;;13.30;59.59;101690.84;4961162;28;124822;-68
2022/11/10 01:23:23;;;;;;;;;;;;;;;13.28;59.34;101691.78;4963710;28;119797;-68
2022/11/10 01:26:09;;;;;;;9.10;2.72;;;;;;;13.25;59.44;101709.59;4955784;28;119649;-68
2022/11/10 01:28:56;;;;;;;10.52;3.13;;;;;;;13.23;59.61;101702.63;4956404;28;124975;-68
2022/11/10 01:31:41;;;;;;;8.75;2.22;;;;;;;13.21;59.63;101708.00;4961782;28;124486;-68
2022/11/10 01:34:26;;;;;;;8.07;2.17;;;;;;;13.20;59.68;101716.03;4962814;28;121267;-68
2022/11/10 01:37:12;;;;;;;9.05;2.17;;;;;;;13.18;59.72;101702.81;4963120;28;120605;-68
2022/11/10 01:39:58;;;;;;;9.52;2.85;;;;;;;13.17;59.85;101716.19;4961567;28;124694;-68
2022/11/10 01:42:51;;;;;;;13.75;3.33;;;;;;;13.15;59.94;101720.72;4959557;28;124382;-68
2022/11/10 01:45:48;;;;;;;7.43;2.30;;;;;;;13.11;59.90;101722.63;4962931;28;119799;-68
2022/11/10 01:49:14;;;;;;;12.63;2.65;;;;;;;13.09;59.90;101718.28;4962997;28;119612;-68
2022/11/10 01:52:11;;;;;;;9.13;2.22;;;;;;;13.08;60.09;101727.22;4906638;28;125265;-68
2022/11/10 01:54:57;;;;;;;7.90;2.13;;;;;;;13.07;60.11;101726.31;4906790;28;125125;-68
2022/11/10 01:57:42;;;;;;;10.00;2.75;;;;;;;13.05;60.16;101734.38;4960996;28;119644;-68
2022/11/10 02:00:28;;;;;;;10.57;2.60;;;;;;;13.04;60.10;101727.31;4954517;28;120303;-68
2022/11/10 02:03:26;;;;;;;12.70;3.08;;;;;;;13.03;60.12;101730.94;4956458;28;124785;-69
2022/11/10 02:06:14;;;;;;;7.95;2.58;;;;;;;13.04;60.26;101715.84;4960450;28;124670;-68
2022/11/10 02:09:00;;;;;;;10.15;2.65;;;;;;;13.03;60.44;101714.97;4956206;28;120539;-68
2022/11/10 02:11:46;;;;;;;8.25;2.30;;;;;;;13.03;60.40;101714.97;4952844;28;120135;-68
2022/11/10 02:14:32;;;;;;;17.38;3.05;;;;;;;13.05;60.27;101722.88;4957117;28;125122;-67
2022/11/10 02:17:17;;;;;;;13.77;2.47;;;;;;;13.03;60.43;101725.63;4959677;28;124689;-68
2022/11/10 02:20:05;;;;;;;;;;;;;;;12.99;59.96;101718.66;4959495;28;119856;-68
2022/11/10 02:22:51;;;;;;;8.63;2.45;;;;;;;13.03;60.25;101730.94;4966338;28;120317;-68
2022/11/10 02:25:36;;;;;;;11.48;2.60;;;;;;;13.00;60.15;101733.69;4958004;28;124709;-68
2022/11/10 02:28:23;;;;;;;6.70;2.20;;;;;;;12.99;60.25;101734.63;4957978;28;124449;-68
2022/11/10 02:31:09;;;;;;;10.20;2.83;;;;;;;12.98;60.37;101748.88;4968273;28;121777;-68
2022/11/10 02:33:54;;;;;;;11.05;2.60;;;;;;;12.98;60.58;101755.97;4962235;28;120617;-68
2022/11/10 02:36:40;;;;;;;10.93;2.53;;;;;;;12.97;60.44;101763.06;4962756;28;124833;-68
2022/11/10 02:39:26;;;;;;;8.07;2.60;;;;;;;12.97;60.44;101757.75;4959657;28;125329;-67
2022/11/10 02:42:11;;;;;;;13.85;2.42;;;;;;;12.96;60.62;101761.34;4963562;28;120140;-68
2022/11/10 02:44:57;;;;;;;13.25;2.40;;;;;;;12.97;60.42;101768.38;4964711;28;119831;-68
2022/11/10 02:47:43;;;;;;;9.82;2.70;;;;;;;12.96;60.43;101761.34;4965370;28;125419;-68
2022/11/10 02:50:29;;;;;;;10.63;2.58;;;;;;;12.96;60.49;101766.69;4958987;28;124412;-68
2022/11/10 02:53:15;;;;;;;10.02;2.72;;;;;;;12.96;60.65;101758.69;4960289;28;120072;-68
2022/11/10 02:56:00;;;;;;;6.88;2.38;;;;;;;12.96;60.65;101772.00;4965924;28;119614;-67
2022/11/10 02:58:46;;;;;;;;;;;;;;;12.94;60.49;101763.22;4954669;28;124481;-68
2022/11/10 03:01:31;;;;;;;10.23;2.17;;;;;;;12.94;60.39;101765.88;4958498;28;124779;-68
2022/11/10 03:04:17;;;;;;;12.05;2.53;;;;;;;12.93;60.59;101760.59;4963894;28;120488;-68
2022/11/10 03:07:02;;;;;;;11.88;2.88;;;;;;;12.90;60.61;101766.91;4956974;28;119831;-67
2022/11/10 03:09:48;;;;;;;12.43;2.72;;;;;;;12.90;60.62;101782.84;4963365;28;124817;-68
2022/11/10 03:12:33;;;;;;;9.23;2.63;;;;;;;12.89;60.69;101781.13;4957929;28;124608;-68
2022/11/10 03:15:19;;;;;;;11.13;2.60;;;;;;;12.88;60.71;101779.38;4956971;28;119983;-68
2022/11/10 03:18:04;;;;;;;;;;;;;;;12.84;60.48;101777.78;4958134;28;118558;-67
2022/11/10 03:20:50;;;;;;;10.23;2.50;;;;;;;12.84;60.52;101783.09;4961472;28;124975;-68
2022/11/10 03:23:36;;;;;;;8.63;2.35;;;;;;;12.84;60.51;101783.09;4967247;28;125091;-67
2022/11/10 03:26:22;;;;;;;12.00;2.20;;;;;;;12.83;60.70;101782.25;4965847;28;120774;-67
2022/11/10 03:29:07;;;;;;;9.07;2.70;;;;;;;12.83;60.83;101797.34;4958704;28;121169;-68
2022/11/10 03:31:53;;;;;;;12.25;2.35;;;;;;;12.82;60.69;101806.22;4964709;28;125175;-68
2022/11/10 03:34:39;;;;;;;13.70;2.75;;;;;;;12.80;60.63;101798.31;4964425;28;124612;-68
2022/11/10 03:37:24;;;;;;;8.15;2.38;;;;;;;12.81;60.74;101820.47;4959389;28;120224;-68
2022/11/10 03:40:10;;;;;;;18.58;3.05;;;;;;;12.81;60.76;101820.47;4961788;28;119715;-68
2022/11/10 03:42:56;;;;;;;11.45;2.67;;;;;;;12.80;60.83;101818.72;4963018;28;124895;-68
2022/11/10 03:45:43;;;;;;;8.77;2.60;;;;;;;12.78;60.84;101820.56;4966263;28;125399;-68
2022/11/10 03:48:28;;;;;;;13.60;2.55;;;;;;;12.78;60.72;101815.25;4959026;28;120483;-68
2022/11/10 03:51:14;;;;;;;8.77;2.55;;;;;;;12.78;60.87;101825.88;4961881;28;119840;-68
2022/11/10 03:53:59;;;;;;;14.43;3.42;;;;;;;12.77;60.70;101829.44;4960474;28;124716;-68
2022/11/10 03:56:44;;;;;;;12.80;3.13;;;;;;;12.75;60.76;101836.63;4957371;28;124466;-68
2022/11/10 03:59:30;;;;;;;13.55;2.35;;;;;;;12.73;60.81;101843.78;4961971;28;119949;-68
2022/11/10 04:02:16;;;;;;;10.38;2.45;;;;;;;12.71;60.82;101850.97;4956772;28;119562;-68
2022/11/10 04:15:40;;;;;;;10.32;2.47;;;;;;;12.61;60.96;101853.09;4960825;28;120189;-68
2022/11/10 04:17:27;;;;;;;9.85;2.20;;;;;;;12.56;61.08;101858.56;4958033;28;124482;-68
2022/11/10 04:20:13;;;;;;;;;;;;;;;12.54;60.87;101871.06;4959174;28;124436;-68
2022/11/10 04:29:15;;;;;;;11.20;2.53;;;;;;;12.49;60.97;101899.59;4964529;28;124643;-68
2022/11/10 04:32:01;;;;;;;9.27;2.15;;;;;;;12.48;61.06;101908.47;4958598;28;124434;-68
2022/11/10 04:34:46;;;;;;;11.13;2.20;;;;;;;12.47;60.75;101922.72;4960070;28;119315;-68
2022/11/10 04:37:32;;;;;;;12.88;2.47;;;;;;;12.46;60.94;101931.59;4955501;28;119495;-67
2022/11/10 04:40:18;;;;;;;11.40;2.50;;;;;;;12.45;61.01;101935.16;4963491;28;124755;-68
2022/11/10 04:43:03;;;;;;;11.35;2.50;;;;;;;12.43;61.24;101937.00;4958187;28;124672;-68
2022/11/10 04:45:49;;;;;;;8.45;2.60;;;;;;;12.42;61.17;101941.44;4963849;28;120111;-67
2022/11/10 04:48:34;;;;;;;;;;;;;;;12.41;61.03;101941.50;4956084;28;119540;-68
2022/11/10 04:51:22;;;;;;;12.00;2.75;;;;;;;12.41;60.97;101938.84;4960229;28;125085;-68
2022/11/10 04:54:10;;;;;;;7.97;2.38;;;;;;;12.40;61.06;101942.44;4962889;28;124528;-68
2022/11/10 04:56:55;;;;;;;12.13;2.53;;;;;;;12.41;61.39;101946.81;4959221;28;119887;-68
2022/11/10 04:59:41;;;;;;;;;;;;;;;12.40;60.89;101942.44;4967348;28;119858;-68
2022/11/10 05:02:26;;;;;;;11.15;2.60;;;;;;;12.39;61.05;101946.00;4959337;28;126376;-68
2022/11/10 05:05:12;;;;;;;9.30;2.45;;;;;;;12.39;61.28;101951.31;4953816;28;124430;-68
2022/11/10 05:07:58;;;;;;;10.63;2.30;;;;;;;12.38;61.15;101954.91;4959049;28;119883;-68
2022/11/10 05:10:43;;;;;;;10.90;2.42;;;;;;;12.39;61.14;101956.63;4963708;28;119646;-68
2022/11/10 05:13:29;;;;;;;11.75;2.85;;;;;;;12.38;61.20;101954.91;4952874;28;124720;-68
2022/11/10 05:16:15;;;;;;;7.80;2.67;;;;;;;12.38;61.16;101960.22;4961497;28;124700;-68
2022/11/10 05:19:00;;;;;;;;;;;;;;;12.36;60.99;101956.75;4958548;28;121075;-68
2022/11/10 05:21:46;;;;;;;11.18;2.00;;;;;;;12.37;61.00;101958.47;4967329;28;120597;-68
2022/11/10 05:24:31;;;;;;;11.93;2.80;;;;;;;12.34;61.11;101951.50;4961084;28;126155;-68
2022/11/10 05:27:16;;;;;;;13.77;2.67;;;;;;;12.33;61.11;101951.53;4955154;28;124433;-67
2022/11/10 05:30:02;;;;;;;;;;;;;;;12.29;61.04;101956.09;4959810;28;119971;-67
2022/11/10 05:32:48;;;;;;;13.80;2.20;;;;;;;12.29;61.02;101955.22;4975944;28;119631;-68
2022/11/10 05:35:34;;;;;;;11.30;2.70;;;;;;;12.27;61.22;101963.25;4959112;28;125267;-68
2022/11/10 05:38:20;;;;;;;16.63;2.80;;;;;;;12.25;61.27;101965.09;4965312;28;125153;-68
2022/11/10 05:41:06;;;;;;;13.93;3.00;;;;;;;12.25;61.31;101959.78;4961995;28;120004;-68
2022/11/10 05:43:52;;;;;;;10.68;2.97;;;;;;;12.25;61.44;101955.31;4955743;28;119195;-66
2022/11/10 05:46:37;;;;;;;12.30;2.58;;;;;;;12.23;61.55;101967.78;4955415;28;124847;-66
2022/11/10 05:49:22;;;;;;;13.25;2.80;;;;;;;12.22;61.36;101960.75;4962763;28;125270;-67
2022/11/10 05:52:08;;;;;;;;;;;;;;;12.21;61.13;101974.94;4966160;28;119507;-67
2022/11/10 05:54:55;;;;;;;13.63;2.90;;;;;;;12.21;61.20;101969.63;4961930;28;120002;-67
2022/11/10 05:57:42;;;;;;;7.60;2.17;;;;;;;12.20;61.25;101972.34;4963983;28;124943;-67
2022/11/10 06:00:29;;;;;;;10.82;2.28;;;;;;;12.19;61.38;101982.09;4963451;28;124716;-67
2022/11/10 06:03:17;;;;;;;11.30;2.80;;;;;;;12.19;61.65;101986.56;4959962;28;119929;-67
2022/11/10 06:06:03;;;;;;;11.35;2.45;;;;;;;12.17;61.69;101993.69;4957312;28;119792;-67
2022/11/10 06:08:49;;;;;;;11.93;2.88;;;;;;;12.17;61.61;101999.88;4963791;28;124844;-67
2022/11/10 06:11:35;;;;;;;11.60;2.42;;;;;;;12.18;61.74;102001.59;4958354;28;125118;-67
2022/11/10 06:14:20;;;;;;;12.63;2.30;;;;;;;12.20;61.87;102010.38;4964422;28;121071;-66
2022/11/10 06:17:06;;;;;;;7.40;2.47;;;;;;;12.19;61.78;102008.66;4960066;28;120826;-67
2022/11/10 06:19:51;;;;;;;19.38;2.55;;;;;;;12.21;61.97;102011.28;4960206;28;123681;-67
2022/11/10 06:22:37;;;;;;;;;;;;;;;12.19;61.60;102011.31;4963195;28;124708;-67
2022/11/10 06:25:23;;;;;;;12.27;2.40;;;;;;;12.21;61.69;102006.81;4968570;28;120122;-67
2022/11/10 06:28:09;;;;;;;;;;;;;;;12.20;61.46;102021.00;4965556;28;119899;-67
2022/11/10 06:30:56;;;;;;;7.05;2.35;;;;;;;12.20;61.58;102017.47;4961081;28;124993;-68
2022/11/10 06:33:42;;;;;;;13.25;2.75;;;;;;;12.18;61.78;102020.19;4962588;28;124427;-67
2022/11/10 06:36:28;;;;;;;13.82;2.65;;;;;;;12.16;61.68;102022.03;4964244;28;122475;-67
2022/11/10 06:39:13;;;;;;;16.27;3.25;;;;;;;12.16;61.66;102030.00;4962235;28;120138;-67
2022/11/10 06:41:59;;;;;;;13.55;2.83;;;;;;;12.15;61.66;102032.69;4962121;28;125185;-67
2022/11/10 06:44:44;;;;;;;10.93;3.33;;;;;;;12.15;61.83;102038.91;4964788;28;124429;-68
2022/11/10 06:47:30;;;;;;;11.13;2.58;;;;;;;12.15;61.88;102038.91;4959132;28;119277;-68
2022/11/10 06:50:16;;;;;;;16.15;3.20;;;;;;;12.14;61.95;102055.72;4959255;28;119658;-68
2022/11/10 06:53:02;;;;;;;10.00;2.90;;;;;;;12.16;62.03;102071.63;4965271;28;124953;-68
2022/11/10 06:55:49;;;;;;;18.17;2.85;;;;;;;12.17;61.96;102063.63;4965155;28;123783;-68
2022/11/10 06:58:34;;;;;;;13.48;2.88;;;;;;;12.17;61.91;102079.56;4964041;28;120382;-68
2022/11/10 07:01:24;;;;;;;;;;;;;;;12.15;61.74;102081.38;4957089;28;119698;-68
2022/11/10 07:04:10;;;;;;;13.90;2.50;;;;;;;12.17;61.83;102087.53;4955640;28;124788;-68
2022/11/10 07:07:04;;;;;;;11.93;2.40;;;;;;;12.15;61.81;102097.31;4964617;28;124679;-68
2022/11/10 07:09:50;;;;;;;10.63;2.88;;;;;;;12.15;61.81;102096.44;4961181;28;120920;-68
2022/11/10 07:12:36;;;;;;;7.82;2.72;;;;;;;12.15;62.08;102094.66;4967110;28;120887;-68
2022/11/10 07:15:21;;;;;;;12.98;2.80;;;;;;;12.16;61.91;102104.34;4959249;28;124954;-68
2022/11/10 07:18:07;;;;;;;12.13;2.47;;;;;;;12.18;62.09;102099.88;4963789;28;124512;-68
2022/11/10 07:20:53;;;;;;;14.55;2.88;;;;;;;12.19;62.05;102103.41;4959659;28;120132;-68
2022/11/10 07:23:38;;;;;;;14.77;2.90;;;;;;;12.20;62.02;102115.75;4965551;28;119829;-69
2022/11/10 07:26:23;;;;;;;12.80;2.90;;;;;;;12.20;62.04;102106.00;4963808;28;124839;-69
2022/11/10 07:29:09;;;;;;;11.35;2.90;;;;;;;12.23;61.98;102121.84;4969600;28;125033;-68
2022/11/10 07:31:55;;;;;;;9.43;2.78;;;;;;;12.24;62.05;102134.22;4956220;28;119732;-68
2022/11/10 07:34:40;;;;;;;13.07;2.90;;;;;;;12.25;61.99;102135.94;4951617;28;119586;-68
2022/11/10 07:37:26;;;;;;;11.95;2.65;;;;;;;12.26;62.35;102147.44;4952110;28;126084;-68
2022/11/10 07:40:11;;;;;;;12.65;2.80;;;;;;;12.30;62.13;102148.22;4966255;28;124532;-67
2022/11/10 07:42:56;;;;;;;15.00;2.67;;;;;;;12.33;62.37;102142.81;4961612;28;120616;-67
2022/11/10 07:45:42;;;;;;;;;;;;;;;12.34;62.11;102139.22;4959448;28;119507;-67
2022/11/10 07:48:28;;;;;;;12.15;2.50;;;;;;;12.39;62.16;102142.59;4958988;28;125160;-68
2022/11/10 07:51:13;;;;;;;13.52;2.70;;;;;;;12.42;62.13;102142.53;4962378;28;125578;-68
2022/11/10 07:53:58;;;;;;;11.02;2.30;;;;;;;12.45;62.26;102145.97;4957291;28;120466;-68
2022/11/10 07:56:44;;;;;;;14.80;2.92;;;;;;;12.49;62.22;102154.69;4961305;28;119480;-67
2022/11/10 07:59:30;;;;;;;;;;;;;;;12.50;61.95;102150.25;4967267;28;124777;-68
2022/11/10 08:02:15;;;;;;;11.77;2.92;;;;;;;12.53;62.14;102151.03;4958812;28;124958;-67
2022/11/10 08:05:00;;;;;;;11.80;2.83;;;;;;;12.56;62.20;102161.53;4955777;28;120242;-67
2022/11/10 08:07:46;;;;;;;9.77;2.40;;;;;;;12.60;62.29;102168.50;4964819;28;120773;-68
2022/11/10 08:10:32;;;;;;;12.65;2.17;;;;;;;12.63;62.21;102173.72;4966123;28;124858;-68
2022/11/10 08:13:18;;;;;;;13.95;2.70;;;;;;;12.68;62.36;102175.34;4960851;28;124557;-67
2022/11/10 08:16:05;;;;;;;12.50;2.60;;;;;;;12.73;62.44;102179.59;4966579;28;120041;-67
2022/11/10 08:18:50;;;;;;;;;;;;;;;12.76;62.19;102189.28;4954308;28;119752;-68
2022/11/10 08:21:35;;;;;;;8.98;2.70;;;;;;;12.82;62.17;102197.03;4967934;28;125934;-68
2022/11/10 08:24:21;;;;;;;17.85;3.20;;;;;;;12.87;62.23;102208.41;4967578;28;124829;-68
2022/11/10 08:27:06;;;;;;;14.85;3.20;;;;;;;12.91;62.36;102201.19;4967128;28;119634;-68
2022/11/10 08:29:52;;;;;;;15.27;2.60;;;;;;;12.95;62.26;102201.03;4968755;28;119930;-68
2022/11/10 08:32:37;;;;;;;11.93;2.80;;;;;;;13.00;62.57;102193.78;4967562;28;125272;-69
2022/11/10 08:35:25;;;;;;;9.75;2.63;;;;;;;13.07;62.28;102193.56;4966838;28;124498;-68
2022/11/10 08:38:19;;;;;;;13.57;2.70;;;;;;;13.12;62.53;102196.94;4954803;28;120584;-67
2022/11/10 08:41:04;;;;;;;14.48;3.05;;;;;;;13.17;62.53;102189.69;4965954;28;119419;-68
2022/11/10 08:43:50;;;;;;;12.13;2.63;;;;;;;13.22;62.57;102198.34;4966772;28;124686;-68
2022/11/10 08:46:35;;;;;;;14.18;3.20;;;;;;;13.26;62.53;102200.03;4966834;28;124703;-67
2022/11/10 08:49:20;;;;;;;11.00;2.88;;;;;;;13.32;62.41;102194.50;4967220;28;120533;-68
2022/11/10 08:52:06;;;;;;;14.60;2.80;;;;;;;13.38;62.47;102210.25;4967677;28;119837;-68
2022/11/10 08:54:51;;;;;;;;;;;;;;;13.43;62.39;102213.63;4965883;28;124598;-68
2022/11/10 08:57:37;;;;;;;15.13;3.08;;;;;;;13.51;62.29;102207.19;4966938;28;125091;-68
2022/11/10 09:00:22;;;;;;;11.75;2.65;;;;;;;13.58;62.36;102221.97;4967062;28;121005;-68
2022/11/10 09:03:12;;;;;;;;;;;;;;;13.63;62.21;102220.03;4955216;28;120418;-67
2022/11/10 09:05:58;;;;;;;12.07;2.78;;;;;;;13.73;62.27;102226.78;4976122;28;125066;-68
2022/11/10 09:08:43;;;;;;;8.05;2.42;;;;;;;13.79;62.16;102229.22;4966154;28;124963;-68
2022/11/10 09:11:29;;;;;;;10.55;2.28;;;;;;;13.89;62.29;102231.53;4961409;28;123676;-68
2022/11/10 09:14:15;;;;;;;10.48;3.00;;;;;;;13.95;62.13;102236.63;4965613;28;119102;-68
2022/11/10 09:17:00;;;;;;;11.07;2.38;;;;;;;14.04;62.03;102236.28;4966417;28;124855;-67
2022/11/10 09:19:46;;;;;;;13.00;3.13;;;;;;;14.11;61.98;102237.81;4963860;28;124397;-68
2022/11/10 09:22:36;;;;;;;12.68;2.95;;;;;;;14.17;62.09;102247.38;4958287;28;119969;-67
2022/11/10 09:25:22;;;;;;;14.43;2.85;;;;;;;14.25;61.80;102249.75;4964495;28;120849;-68
2022/11/10 09:28:15;;;;;;;9.30;2.85;;;;;;;14.31;61.87;102249.50;4958129;28;125328;-67
2022/11/10 09:31:01;;;;;;;12.25;2.80;;;;;;;14.41;61.95;102250.91;4960457;28;124665;-67
2022/11/10 09:33:46;;;;;;;13.93;3.10;;;;;;;14.49;61.75;102254.13;4963621;28;119784;-68
2022/11/10 09:36:32;;;;;;;16.80;3.25;;;;;;;14.55;61.73;102259.22;4969487;28;119928;-68
2022/11/10 09:39:17;;;;;;;;;;;;;;;14.58;61.47;102264.47;4964835;28;124824;-68
2022/11/10 09:42:05;;;;;;;12.20;3.05;;;;;;;14.67;61.49;102270.34;4969683;28;125209;-68
2022/11/10 09:44:59;;;;;;;12.30;3.17;;;;;;;14.74;61.55;102263.88;4969316;28;119836;-68
2022/11/10 09:47:47;;;;;;;15.23;3.00;;;;;;;14.83;61.42;102258.16;4969838;28;119947;-68
2022/11/10 09:50:51;;;;;;;15.00;3.10;;;;;;;14.90;61.45;102262.31;4969042;28;124631;-68
2022/11/10 09:53:58;;;;;;;13.10;2.63;;;;;;;15.01;61.30;102271.69;4957055;28;124747;-68
2022/11/10 09:56:44;;;;;;;13.15;3.03;;;;;;;15.07;61.41;102266.09;4962127;28;121985;-67
2022/11/10 09:59:31;;;;;;;12.88;3.13;;;;;;;15.16;61.20;102265.69;4969087;28;120447;-68
2022/11/10 10:02:30;;;;;;;7.35;3.00;;;;;;;15.25;61.19;102264.47;4973641;28;124738;-67
2022/11/10 10:05:40;;;;;;;11.68;3.28;;;;;;;15.32;60.96;102272.16;4962576;28;124858;-68
2022/11/10 10:08:53;;;;;;;12.20;3.08;;;;;;;15.42;60.84;102269.09;4950184;28;120454;-68
2022/11/10 10:12:06;;;;;;;19.52;3.20;;;;;;;15.49;60.86;102257.22;4962601;28;120562;-68
2022/11/10 10:15:00;;;;;;;9.45;3.08;;;;;;;15.59;60.77;102263.88;4969520;28;124879;-68
2022/11/10 10:18:22;;;;;;;12.15;2.72;;;;;;;15.70;60.68;102266.09;4956543;28;124613;-68
2022/11/10 10:21:34;;;;;;;12.60;2.70;;;;;;;15.82;60.65;102280.75;4950802;28;120058;-68
2022/11/10 10:24:22;;;;;;;13.40;2.67;;;;;;;15.93;60.64;102291.81;4949526;28;119708;-68
2022/11/10 10:27:16;;;;;;;8.88;2.30;;;;;;;16.02;60.37;102293.22;4949280;28;124698;-68
2022/11/10 10:30:11;;;;;;;9.63;2.15;;;;;;;16.11;60.18;102287.47;4949542;28;124365;-68
2022/11/10 10:33:10;;;;;;;11.80;2.03;;;;;;;16.19;60.07;102292.47;4949292;28;119872;-68
2022/11/10 10:36:04;;;;;;;10.80;3.03;;;;;;;16.27;59.76;102292.97;4946043;28;119830;-68
2022/11/10 10:39:01;;;;;;;8.95;2.20;;;;;;;16.35;59.91;102306.88;4949770;28;124837;-68
2022/11/10 10:41:46;;;;;;;;;;;;;;;16.39;59.88;102305.78;4950736;28;125460;-68
2022/11/10 10:44:31;;;;;;;8.48;1.75;;;;;;;16.49;59.65;102317.78;4963565;28;122698;-69
2022/11/10 10:47:17;;;;;;;10.95;2.33;;;;;;;16.55;59.38;102317.50;4956554;28;120115;-67
2022/11/10 10:50:31;;;;;;;8.55;2.20;;;;;;;16.66;59.29;102321.50;4968999;28;125184;-68
2022/11/10 10:53:22;;;;;;;11.95;2.50;;;;;;;16.75;59.29;102321.06;4953650;28;124812;-68
2022/11/10 10:56:21;;;;;;;8.32;1.95;;;;;;;16.81;58.86;102326.13;4951307;28;121401;-68
2022/11/10 10:59:19;;;;;;;11.20;2.38;;;;;;;16.88;58.74;102321.38;4959982;28;120534;-68
2022/11/10 11:02:25;;;;;;;11.82;2.25;;;;;;;16.99;58.67;102323.53;4953114;28;125759;-69
2022/11/10 11:05:15;;;;;;;;;;;;;;;17.06;59.03;102330.31;4949452;28;124657;-68
2022/11/10 11:08:02;;;;;;;8.02;2.10;;;;;;;17.17;58.59;102338.69;4954361;28;121111;-68
2022/11/10 11:10:47;;;;;;;14.27;1.90;;;;;;;17.21;58.24;102321.53;4951615;28;119658;-68
2022/11/10 11:13:33;;;;;;;8.90;1.98;;;;;;;17.26;58.11;102316.81;4948871;28;125028;-68
2022/11/10 11:16:19;;;;;;;11.30;2.40;;;;;;;17.35;57.82;102325.31;4950717;28;125258;-68
2022/11/10 11:19:07;;;;;;;9.00;1.98;;;;;;;17.41;57.81;102322.38;4950498;28;119869;-68
2022/11/10 11:22:27;;;;;;;9.00;2.05;;;;;;;17.48;57.56;102315.75;4956140;28;119645;-68
2022/11/10 11:25:43;;;;;;;10.15;1.95;;;;;;;17.55;57.64;102311.81;4949270;28;125211;-69
2022/11/10 11:28:54;;;;;;;13.05;2.20;;;;;;;17.65;57.18;102322.91;4960013;28;124673;-68
2022/11/10 11:31:45;;;;;;;11.48;1.83;;;;;;;17.76;57.28;102317.00;4955806;28;119974;-68
2022/11/10 11:34:37;;;;;;;9.82;1.95;;;;;;;17.87;56.93;102328.06;4955873;28;120141;-68
2022/11/10 11:37:49;;;;;;;10.13;1.88;;;;;;;17.95;56.84;102333.91;4957066;28;125144;-68
2022/11/10 11:40:52;;;;;;;8.48;2.00;;;;;;;18.02;56.50;102337.13;4960062;28;124588;-68
2022/11/10 11:44:03;;;;;;;8.90;1.60;;;;;;;18.07;56.38;102341.28;4958022;28;120558;-68
2022/11/10 11:47:13;;;;;;;9.38;1.65;;;;;;;18.15;55.95;102348.06;4958444;28;120168;-68
2022/11/10 11:50:43;;;;;;;9.23;1.83;;;;;;;18.21;56.10;102347.75;4963266;28;125155;-68
2022/11/10 11:53:58;;;;;;;9.68;1.70;;;;;;;18.29;55.84;102350.91;4963306;28;125610;-67
2022/11/10 11:56:48;;;;;;;6.90;1.60;;;;;;;18.35;55.40;102366.66;4962353;28;121312;-68
2022/11/10 11:59:46;;;;;;;8.82;2.10;;;;;;;18.40;55.13;102367.28;4957270;28;120612;-67
2022/11/10 12:03:07;;;;;;;8.25;1.30;;;;;;;18.45;55.21;102367.88;4958761;28;124776;-68
2022/11/10 12:06:11;;;;;;;10.65;1.95;;;;;;;18.51;54.93;102376.56;4956746;28;125302;-68
2022/11/10 12:09:04;;;;;;;6.75;1.60;;;;;;;18.55;54.57;102372.75;4955918;28;120452;-68
2022/11/10 12:12:24;;;;;;;12.15;1.63;;;;;;;18.58;54.30;102372.59;4954531;28;119586;-68
2022/11/10 12:15:28;;;;;;;5.78;1.40;;;;;;;18.61;54.14;102375.09;4960836;28;124803;-67
2022/11/10 12:18:43;;;;;;;6.13;1.42;;;;;;;18.63;54.05;102386.63;4959966;28;125357;-68
2022/11/10 12:21:56;;;;;;;9.73;1.63;;;;;;;18.68;54.04;102373.81;4955976;28;120079;-68
2022/11/10 12:25:12;;;;;;;9.15;1.75;;;;;;;18.73;53.88;102382.50;4958242;28;119779;-67
2022/11/10 12:28:22;;;;;;;7.80;1.50;;;;;;;18.78;53.77;102379.53;4958226;28;125275;-68
2022/11/10 12:31:14;;;;;;;6.75;1.30;;;;;;;18.82;53.49;102371.28;4961035;28;124771;-68
2022/11/10 12:34:08;;;;;;;7.47;1.45;;;;;;;18.87;53.52;102373.69;4962477;28;119799;-68
2022/11/10 12:36:56;;;;;;;5.88;1.38;;;;;;;18.94;53.31;102379.59;4957451;28;120219;-68
2022/11/10 12:39:52;;;;;;;7.03;1.70;;;;;;;19.01;53.19;102381.00;4951818;28;124992;-67
2022/11/10 12:42:37;;;;;;;;;;;;;;;19.05;53.94;102380.72;4963587;28;124608;-68
2022/11/10 12:45:35;;;;;;;8.80;1.45;;;;;;;19.14;53.30;102379.34;4964672;28;120214;-68
2022/11/10 12:48:21;;;;;;;5.95;1.48;;;;;;;19.20;52.78;102381.69;4957068;28;119472;-67
2022/11/10 12:51:16;;;;;;;7.35;1.42;;;;;;;19.22;52.47;102379.75;4951761;28;124791;-68
2022/11/10 12:54:02;;;;;;;4.55;1.38;;;;;;;19.29;52.51;102384.78;4952140;28;124545;-69
2022/11/10 12:56:53;;;;;;;10.70;1.52;;;;;;;19.32;52.19;102384.63;4954946;28;121125;-68
2022/11/10 13:00:00;;;;;;;6.22;1.25;;;;;;;19.37;52.14;102377.16;4955282;28;120693;-68
2022/11/10 13:02:47;;;;;;;6.57;1.40;;;;;;;19.41;52.08;102384.09;4963910;28;125406;-68
2022/11/10 13:05:39;;;;;;;7.75;1.40;;;;;;;19.42;51.50;102396.56;4947188;28;124591;-68
2022/11/10 13:08:31;;;;;;;9.50;1.63;;;;;;;19.44;51.52;102394.66;4949469;28;120750;-68
2022/11/10 13:11:17;;;;;;;7.00;1.38;;;;;;;19.42;51.28;102402.81;4964974;28;120239;-68
2022/11/10 13:14:17;;;;;;;7.05;1.27;;;;;;;19.42;51.23;102399.25;4966613;28;124840;-68
2022/11/10 13:17:03;;;;;;;8.35;1.33;;;;;;;19.44;51.15;102402.72;4959792;28;124793;-68
2022/11/10 13:19:50;;;;;;;7.47;1.60;;;;;;;19.45;50.68;102401.75;4966524;28;120560;-68